createdAt,value
2022-12-15T00:02:03.346Z,97495.00
2022-12-15T00:04:52.804Z,97513.00
2022-12-15T00:07:42.380Z,97528.00
2022-12-15T00:10:32.138Z,97516.00
2022-12-15T00:13:22.391Z,97514.00
2022-12-15T00:16:11.684Z,97523.00
2022-12-15T00:19:00.979Z,97530.00
2022-12-15T00:21:50.896Z,97531.00
2022-12-15T00:24:40.226Z,97545.00
2022-12-15T00:27:29.631Z,97544.00
2022-12-15T00:30:19.119Z,97542.00
2022-12-15T00:33:08.411Z,97543.00
2022-12-15T00:35:57.921Z,97535.00
2022-12-15T00:38:44.343Z,97545.00
2022-12-15T00:41:17.917Z,97546.00
2022-12-15T00:43:48.951Z,97537.00
2022-12-15T00:46:38.279Z,97552.00
2022-12-15T00:49:29.273Z,97551.00
2022-12-15T00:52:18.666Z,97557.00
2022-12-15T00:55:08.216Z,97565.00
2022-12-15T00:57:57.988Z,97561.00
2022-12-15T01:00:48.503Z,97576.00
2022-12-15T01:03:42.165Z,97572.00
2022-12-15T01:06:35.653Z,97569.00
2022-12-15T01:09:28.584Z,97571.00
2022-12-15T01:12:18.199Z,97572.00
2022-12-15T01:15:07.913Z,97579.00
2022-12-15T01:17:57.237Z,97575.00
2022-12-15T01:20:29.507Z,97581.00
2022-12-15T01:23:00.541Z,97572.00
2022-12-15T01:25:31.518Z,97584.00
2022-12-15T01:28:02.527Z,97595.00
2022-12-15T01:30:33.499Z,97600.00
2022-12-15T01:33:06.752Z,97595.00
2022-12-15T01:35:38.397Z,97585.00
2022-12-15T01:38:10.615Z,97596.00
2022-12-15T01:40:51.462Z,97610.00
2022-12-15T01:43:36.724Z,97601.00
2022-12-15T01:46:13.736Z,97598.00
2022-12-15T01:49:12.936Z,97593.00
2022-12-15T01:51:52.542Z,97600.00
2022-12-15T01:54:34.976Z,97609.00
2022-12-15T01:57:13.918Z,97595.00
2022-12-15T01:59:50.924Z,97603.00
2022-12-15T02:02:27.485Z,97604.00
2022-12-15T02:05:01.362Z,97602.00
2022-12-15T02:07:32.351Z,97609.00
2022-12-15T02:10:07.829Z,97628.00
2022-12-15T02:13:07.472Z,97607.00
2022-12-15T02:15:51.395Z,97609.00
2022-12-15T02:18:52.884Z,97618.00
2022-12-15T02:22:19.190Z,97617.00
2022-12-15T02:24:56.118Z,97625.00
2022-12-15T02:27:49.360Z,97630.00
2022-12-15T02:30:45.444Z,97634.00
2022-12-15T02:33:27.483Z,97617.00
2022-12-15T02:36:05.604Z,97617.00
2022-12-15T02:38:41.615Z,97615.00
2022-12-15T02:41:42.978Z,97618.00
2022-12-15T02:44:32.100Z,97639.00
2022-12-15T02:47:38.706Z,97631.00
2022-12-15T02:50:27.898Z,97629.00
2022-12-15T02:53:26.642Z,97634.00
2022-12-15T02:56:41.679Z,97633.00
2022-12-15T02:59:27.962Z,97637.00
2022-12-15T03:02:05.969Z,97641.00
2022-12-15T03:04:37.174Z,97629.00
2022-12-15T03:07:10.447Z,97642.00
2022-12-15T03:09:41.413Z,97636.00
2022-12-15T03:12:12.290Z,97643.00
2022-12-15T03:14:43.204Z,97651.00
2022-12-15T03:17:14.121Z,97636.00
2022-12-15T03:19:45.185Z,97643.00
2022-12-15T03:22:16.145Z,97639.00
2022-12-15T03:24:48.364Z,97649.00
2022-12-15T03:27:19.259Z,97654.00
2022-12-15T03:29:50.209Z,97652.00
2022-12-15T03:32:21.451Z,97647.00
2022-12-15T03:34:52.452Z,97649.00
2022-12-15T03:37:23.354Z,97651.00
2022-12-15T03:39:54.272Z,97648.00
2022-12-15T03:42:43.730Z,97656.00
2022-12-15T03:45:24.255Z,97668.00
2022-12-15T03:47:57.132Z,97670.00
2022-12-15T03:50:30.103Z,97662.00
2022-12-15T03:53:04.082Z,97669.00
2022-12-15T03:55:35.406Z,97668.00
2022-12-15T03:58:06.679Z,97670.00
2022-12-15T04:00:37.728Z,97681.00
2022-12-15T04:03:11.153Z,97691.00
2022-12-15T04:05:42.204Z,97692.00
2022-12-15T04:08:14.364Z,97697.00
2022-12-15T04:10:45.342Z,97686.00
2022-12-15T04:13:16.225Z,97685.00
2022-12-15T04:15:47.160Z,97688.00
2022-12-15T04:18:18.111Z,97684.00
2022-12-15T04:20:50.357Z,97693.00
2022-12-15T04:23:22.360Z,97695.00
2022-12-15T04:26:12.225Z,97700.00
2022-12-15T04:29:01.557Z,97702.00
2022-12-15T04:31:52.295Z,97694.00
2022-12-15T04:34:43.221Z,97703.00
2022-12-15T04:37:33.173Z,97689.00
2022-12-15T04:40:25.077Z,97699.00
2022-12-15T04:43:14.181Z,97693.00
2022-12-15T04:46:03.563Z,97700.00
2022-12-15T04:48:52.869Z,97695.00
2022-12-15T04:51:42.094Z,97707.00
2022-12-15T04:54:31.643Z,97706.00
2022-12-15T04:57:21.121Z,97707.00
2022-12-15T05:00:11.517Z,97699.00
2022-12-15T05:03:00.941Z,97692.00
2022-12-15T05:05:50.305Z,97699.00
2022-12-15T05:08:39.522Z,97690.00
2022-12-15T05:11:29.159Z,97695.00
2022-12-15T05:14:18.679Z,97683.00
2022-12-15T05:17:08.427Z,97688.00
2022-12-15T05:19:58.091Z,97698.00
2022-12-15T05:22:47.741Z,97697.00
2022-12-15T05:25:37.453Z,97705.00
2022-12-15T05:28:26.913Z,97718.00
2022-12-15T05:31:16.257Z,97711.00
2022-12-15T05:33:47.237Z,97718.00
2022-12-15T05:36:18.189Z,97712.00
2022-12-15T05:38:51.147Z,97712.00
2022-12-15T05:41:22.678Z,97710.00
2022-12-15T05:43:53.595Z,97710.00
2022-12-15T05:46:24.825Z,97705.00
2022-12-15T05:48:55.781Z,97708.00
2022-12-15T05:51:26.758Z,97705.00
2022-12-15T05:53:57.696Z,97708.00
2022-12-15T05:56:28.924Z,97713.00
2022-12-15T05:58:59.832Z,97711.00
2022-12-15T06:01:31.658Z,97715.00
2022-12-15T06:04:02.913Z,97724.00
2022-12-15T06:06:34.249Z,97719.00
2022-12-15T06:09:05.297Z,97715.00
2022-12-15T06:11:37.581Z,97718.00
2022-12-15T06:14:09.551Z,97718.00
2022-12-15T06:16:50.433Z,97712.00
2022-12-15T06:19:22.829Z,97726.00
2022-12-15T06:21:53.766Z,97738.00
2022-12-15T06:24:24.887Z,97736.00
2022-12-15T06:26:55.768Z,97730.00
2022-12-15T06:29:26.745Z,97726.00
2022-12-15T06:31:57.704Z,97720.00
2022-12-15T06:34:28.624Z,97737.00
2022-12-15T06:36:59.485Z,97735.00
2022-12-15T06:39:30.521Z,97735.00
2022-12-15T06:42:01.427Z,97728.00
2022-12-15T06:44:32.372Z,97767.00
2022-12-15T06:47:03.943Z,97738.00
2022-12-15T06:49:34.939Z,97733.00
2022-12-15T06:52:06.159Z,97731.00
2022-12-15T06:54:37.077Z,97730.00
2022-12-15T06:57:08.015Z,97730.00
2022-12-15T06:59:39.233Z,97725.00
2022-12-15T07:02:19.236Z,97719.00
2022-12-15T07:04:53.376Z,97720.00
2022-12-15T07:07:24.504Z,97725.00
2022-12-15T07:09:55.399Z,97723.00
2022-12-15T07:12:26.339Z,97724.00
2022-12-15T07:14:57.335Z,97724.00
2022-12-15T07:17:28.311Z,97746.00
2022-12-15T07:19:59.716Z,97731.00
2022-12-15T07:22:30.739Z,97737.00
2022-12-15T07:25:01.683Z,97731.00
2022-12-15T07:27:32.585Z,97740.00
2022-12-15T07:30:03.824Z,97747.00
2022-12-15T07:32:34.719Z,97756.00
2022-12-15T07:35:07.802Z,97741.00
2022-12-15T07:37:38.929Z,97738.00
2022-12-15T07:40:10.457Z,97749.00
2022-12-15T07:42:41.387Z,97754.00
2022-12-15T07:45:12.404Z,97758.00
2022-12-15T07:47:43.273Z,97760.00
2022-12-15T07:50:14.220Z,97749.00
2022-12-15T07:52:46.526Z,97739.00
2022-12-15T07:55:19.271Z,97745.00
2022-12-15T07:57:58.590Z,97759.00
2022-12-15T08:00:29.602Z,97755.00
2022-12-15T08:03:02.903Z,97762.00
2022-12-15T08:05:34.040Z,97765.00
2022-12-15T08:08:07.495Z,97781.00
2022-12-15T08:10:40.980Z,97788.00
2022-12-15T08:13:25.979Z,97788.00
2022-12-15T08:16:04.250Z,97783.00
2022-12-15T08:18:35.318Z,97788.00
2022-12-15T08:21:09.467Z,97798.00
2022-12-15T08:23:40.486Z,97802.00
2022-12-15T08:26:15.675Z,97807.00
2022-12-15T08:28:46.667Z,97815.00
2022-12-15T08:31:21.036Z,97820.00
2022-12-15T08:33:51.997Z,97822.00
2022-12-15T08:36:23.216Z,97811.00
2022-12-15T08:38:57.744Z,97811.00
2022-12-15T08:41:31.972Z,97802.00
2022-12-15T08:44:03.031Z,97806.00
2022-12-15T08:46:34.854Z,97795.00
2022-12-15T08:49:05.915Z,97806.00
2022-12-15T08:51:36.930Z,97806.00
2022-12-15T08:54:09.091Z,97802.00
2022-12-15T08:56:39.988Z,97811.00
2022-12-15T08:59:10.998Z,97817.00
2022-12-15T09:01:43.578Z,97819.00
2022-12-15T09:04:15.571Z,97822.00
2022-12-15T09:06:50.244Z,97817.00
2022-12-15T09:09:22.297Z,97809.00
2022-12-15T09:11:53.203Z,97816.00
2022-12-15T09:14:29.229Z,97799.00
2022-12-15T09:17:00.617Z,97821.00
2022-12-15T09:19:32.700Z,97798.00
2022-12-15T09:22:05.288Z,97789.00
2022-12-15T09:24:36.302Z,97836.00
2022-12-15T09:27:07.565Z,97803.00
2022-12-15T09:29:38.483Z,97799.00
2022-12-15T09:32:13.901Z,97801.00
2022-12-15T09:34:45.308Z,97798.00
2022-12-15T09:37:16.173Z,97818.00
2022-12-15T09:39:47.205Z,97802.00
2022-12-15T09:42:30.516Z,97803.00
2022-12-15T09:45:18.145Z,97793.00
2022-12-15T09:48:09.634Z,97785.00
2022-12-15T09:50:42.611Z,97795.00
2022-12-15T09:53:45.445Z,97795.00
2022-12-15T09:56:19.805Z,97796.00
2022-12-15T09:59:05.044Z,97790.00
2022-12-15T10:02:08.242Z,97791.00
2022-12-15T10:04:47.495Z,97784.00
2022-12-15T10:07:34.758Z,97800.00
2022-12-15T10:10:33.886Z,97805.00
2022-12-15T10:13:20.869Z,97805.00
2022-12-15T10:16:01.057Z,97797.00
2022-12-15T10:18:40.570Z,97796.00
2022-12-15T10:21:15.641Z,97804.00
2022-12-15T10:23:50.347Z,97802.00
2022-12-15T10:26:27.051Z,97798.00
2022-12-15T10:29:15.212Z,97803.00
2022-12-15T10:32:00.239Z,97797.00
2022-12-15T10:34:36.588Z,97796.00
2022-12-15T10:37:17.896Z,97791.00
2022-12-15T10:39:50.722Z,97772.00
2022-12-15T10:42:26.561Z,97768.00
2022-12-15T10:44:59.169Z,97766.00
2022-12-15T10:47:32.079Z,97753.00
2022-12-15T10:50:25.265Z,97757.00
2022-12-15T10:52:56.446Z,97757.00
2022-12-15T10:55:41.402Z,97761.00
2022-12-15T10:58:22.215Z,97760.00
2022-12-15T11:01:31.055Z,97751.00
2022-12-15T11:04:02.170Z,97734.00
2022-12-15T11:06:36.944Z,97759.00
2022-12-15T11:09:34.198Z,97734.00
2022-12-15T11:12:39.606Z,97728.00
2022-12-15T11:15:22.906Z,97735.00
2022-12-15T11:18:04.273Z,97734.00
2022-12-15T11:20:48.659Z,97718.00
2022-12-15T11:23:27.324Z,97713.00
2022-12-15T11:26:07.150Z,97714.00
2022-12-15T11:29:14.824Z,97712.00
2022-12-15T11:31:45.911Z,97714.00
2022-12-15T11:34:37.168Z,97712.00
2022-12-15T11:37:40.082Z,97723.00
2022-12-15T11:40:38.774Z,97716.00
2022-12-15T11:43:34.069Z,97725.00
2022-12-15T11:46:30.833Z,97748.00
2022-12-15T11:49:41.136Z,97719.00
2022-12-15T11:52:24.941Z,97724.00
2022-12-15T11:55:31.039Z,97712.00
2022-12-15T11:58:49.792Z,97702.00
2022-12-15T12:01:55.415Z,97688.00
2022-12-15T12:05:05.124Z,97683.00
2022-12-15T12:07:50.513Z,97684.00
2022-12-15T12:10:58.281Z,97669.00
2022-12-15T12:13:51.283Z,97660.00
2022-12-15T12:16:47.096Z,97652.00
2022-12-15T12:19:29.361Z,97636.00
2022-12-15T12:22:11.850Z,97634.00
2022-12-15T12:24:48.849Z,97631.00
2022-12-15T12:27:39.654Z,97636.00
2022-12-15T12:30:15.008Z,97637.00
2022-12-15T12:33:28.834Z,97636.00
2022-12-15T12:36:16.494Z,97628.00
2022-12-15T12:38:56.154Z,97630.00
2022-12-15T12:41:32.951Z,97618.00
2022-12-15T12:44:33.719Z,97622.00
2022-12-15T12:47:23.040Z,97622.00
2022-12-15T12:50:01.821Z,97626.00
2022-12-15T12:52:37.068Z,97615.00
2022-12-15T12:55:14.865Z,97626.00
2022-12-15T12:57:46.386Z,97611.00
2022-12-15T13:00:21.167Z,97613.00
2022-12-15T13:03:21.113Z,97610.00
2022-12-15T13:05:52.285Z,97605.00
2022-12-15T13:08:45.777Z,97598.00
2022-12-15T13:11:52.884Z,97607.00
2022-12-15T13:14:36.058Z,97604.00
2022-12-15T13:17:28.486Z,97600.00
2022-12-15T13:19:59.387Z,97591.00
2022-12-15T13:22:36.302Z,97587.00
2022-12-15T13:25:48.522Z,97581.00
2022-12-15T13:28:28.922Z,97570.00
2022-12-15T13:31:23.842Z,97566.00
2022-12-15T13:34:11.954Z,97560.00
2022-12-15T13:36:50.638Z,97555.00
2022-12-15T13:39:28.216Z,97553.00
2022-12-15T13:42:32.150Z,97549.00
2022-12-15T13:45:04.135Z,97541.00
2022-12-15T13:47:35.292Z,97535.00
2022-12-15T13:50:18.171Z,97544.00
2022-12-15T13:53:18.256Z,97537.00
2022-12-15T13:56:11.198Z,97552.00
2022-12-15T13:58:49.021Z,97556.00
2022-12-15T14:01:32.360Z,97558.00
2022-12-15T14:04:11.529Z,97554.00
2022-12-15T14:06:51.176Z,97557.00
2022-12-15T14:09:32.703Z,97553.00
2022-12-15T14:12:08.249Z,97557.00
2022-12-15T14:14:47.290Z,97552.00
2022-12-15T14:17:20.320Z,97551.00
2022-12-15T14:19:53.768Z,97550.00
2022-12-15T14:22:30.599Z,97552.00
2022-12-15T14:25:22.875Z,97544.00
2022-12-15T14:27:53.748Z,97552.00
2022-12-15T14:30:30.951Z,97549.00
2022-12-15T14:33:09.118Z,97552.00
2022-12-15T14:35:51.309Z,97553.00
2022-12-15T14:38:31.085Z,97558.00
2022-12-15T14:41:04.558Z,97561.00
2022-12-15T14:43:39.695Z,97549.00
2022-12-15T14:46:17.041Z,97553.00
2022-12-15T14:49:01.332Z,97559.00
2022-12-15T14:51:48.892Z,97562.00
2022-12-15T14:54:39.817Z,97565.00
2022-12-15T14:57:22.028Z,97558.00
2022-12-15T14:59:53.477Z,97561.00
2022-12-15T15:02:30.132Z,97558.00
2022-12-15T15:05:07.669Z,97563.00
2022-12-15T15:07:39.354Z,97563.00
2022-12-15T15:10:29.970Z,97559.00
2022-12-15T15:13:00.972Z,97566.00
2022-12-15T15:15:31.956Z,97553.00
2022-12-15T15:18:02.898Z,97560.00
2022-12-15T15:20:35.996Z,97546.00
2022-12-15T15:23:18.201Z,97557.00
2022-12-15T15:25:56.601Z,97545.00
2022-12-15T15:28:42.330Z,97550.00
2022-12-15T15:31:25.277Z,97550.00
2022-12-15T15:33:58.067Z,97557.00
2022-12-15T15:36:36.218Z,97563.00
2022-12-15T15:39:15.417Z,97564.00
2022-12-15T15:41:46.472Z,97564.00
2022-12-15T15:44:17.374Z,97563.00
2022-12-15T15:46:51.734Z,97566.00
2022-12-15T15:49:24.569Z,97560.00
2022-12-15T15:51:56.618Z,97565.00
2022-12-15T15:54:35.018Z,97566.00
2022-12-15T15:57:05.965Z,97572.00
2022-12-15T15:59:38.259Z,97569.00
2022-12-15T16:02:11.498Z,97566.00
2022-12-15T16:04:44.199Z,97568.00
2022-12-15T16:07:28.755Z,97562.00
2022-12-15T16:09:59.728Z,97563.00
2022-12-15T16:12:44.378Z,97556.00
2022-12-15T16:15:27.256Z,97560.00
2022-12-15T16:17:59.269Z,97553.00
2022-12-15T16:20:30.517Z,97544.00
2022-12-15T16:23:11.013Z,97554.00
2022-12-15T16:25:51.101Z,97555.00
2022-12-15T16:28:25.980Z,97556.00
2022-12-15T16:31:02.105Z,97558.00
2022-12-15T16:33:33.013Z,97558.00
2022-12-15T16:36:13.127Z,97550.00
2022-12-15T16:38:44.007Z,97552.00
2022-12-15T16:41:17.469Z,97553.00
2022-12-15T16:43:48.481Z,97543.00
2022-12-15T16:46:20.323Z,97551.00
2022-12-15T16:48:51.880Z,97549.00
2022-12-15T16:51:39.282Z,97546.00
2022-12-15T16:54:19.020Z,97548.00
2022-12-15T16:56:50.055Z,97557.00
2022-12-15T16:59:32.911Z,97553.00
2022-12-15T17:02:29.872Z,97546.00
2022-12-15T17:05:00.943Z,97541.00
2022-12-15T17:07:32.241Z,97532.00
2022-12-15T17:10:04.373Z,97537.00
2022-12-15T17:12:35.707Z,97529.00
2022-12-15T17:15:27.215Z,97525.00
2022-12-15T17:17:58.547Z,97522.00
2022-12-15T17:20:30.888Z,97515.00
2022-12-15T17:23:07.785Z,97509.00
2022-12-15T17:28:39.140Z,97503.00
2022-12-15T17:31:20.458Z,97498.00
2022-12-15T17:33:51.645Z,97494.00
2022-12-15T17:36:27.043Z,97499.00
2022-12-15T17:39:00.449Z,97496.00
2022-12-15T17:44:35.089Z,97486.00
2022-12-15T17:47:09.096Z,97488.00
2022-12-15T17:49:40.295Z,97494.00
2022-12-15T17:52:34.624Z,97495.00
2022-12-15T17:55:21.800Z,97490.00
2022-12-15T17:57:55.577Z,97495.00
2022-12-15T18:00:30.204Z,97499.00
2022-12-15T18:03:03.658Z,97496.00
2022-12-15T18:05:34.814Z,97499.00
2022-12-15T18:08:23.246Z,97498.00
2022-12-15T18:10:57.436Z,97501.00
2022-12-15T18:13:35.344Z,97501.00
2022-12-15T18:16:07.001Z,97489.00
2022-12-15T18:18:38.132Z,97487.00
2022-12-15T18:21:16.917Z,97495.00
2022-12-15T18:23:47.925Z,97482.00
2022-12-15T18:26:18.867Z,97490.00
2022-12-15T18:28:49.803Z,97491.00
2022-12-15T18:31:27.472Z,97503.00
2022-12-15T18:34:04.408Z,97495.00
2022-12-15T18:36:35.825Z,97488.00
2022-12-15T18:39:23.228Z,97492.00
2022-12-15T18:41:54.883Z,97495.00
2022-12-15T18:44:28.827Z,97499.00
2022-12-15T18:46:59.811Z,97491.00
2022-12-15T18:49:31.008Z,97497.00
2022-12-15T18:52:02.050Z,97492.00
2022-12-15T18:54:33.062Z,97489.00
2022-12-15T18:57:04.088Z,97476.00
2022-12-15T18:59:34.944Z,97480.00
2022-12-15T19:02:07.959Z,97473.00
2022-12-15T19:04:38.946Z,97475.00
2022-12-15T19:07:11.377Z,97470.00
2022-12-15T19:09:42.362Z,97466.00
2022-12-15T19:12:20.014Z,97465.00
2022-12-15T19:14:52.553Z,97469.00
2022-12-15T19:17:44.249Z,97456.00
2022-12-15T19:20:37.881Z,97453.00
2022-12-15T19:23:08.818Z,97452.00
2022-12-15T19:25:41.648Z,97441.00
2022-12-15T19:28:19.951Z,97438.00
2022-12-15T19:30:52.238Z,97422.00
2022-12-15T19:33:23.175Z,97421.00
2022-12-15T19:35:55.597Z,97417.00
2022-12-15T19:38:30.726Z,97424.00
2022-12-15T19:41:01.698Z,97425.00
2022-12-15T19:43:32.904Z,97425.00
2022-12-15T19:46:04.236Z,97422.00
2022-12-15T19:48:35.201Z,97425.00
2022-12-15T19:51:16.485Z,97429.00
2022-12-15T19:53:49.042Z,97434.00
2022-12-15T19:56:21.993Z,97446.00
2022-12-15T19:58:53.143Z,97444.00
2022-12-15T20:01:24.178Z,97446.00
2022-12-15T20:03:55.254Z,97444.00
2022-12-15T20:06:27.716Z,97445.00
2022-12-15T20:08:59.925Z,97450.00
2022-12-15T20:11:33.074Z,97448.00
2022-12-15T20:14:12.835Z,97449.00
2022-12-15T20:16:45.059Z,97452.00
2022-12-15T20:19:16.482Z,97447.00
2022-12-15T20:21:47.527Z,97446.00
2022-12-15T20:24:20.406Z,97447.00
2022-12-15T20:26:51.430Z,97445.00
2022-12-15T20:29:29.380Z,97465.00
2022-12-15T20:32:00.540Z,97453.00
2022-12-15T20:34:31.496Z,97453.00
2022-12-15T20:37:04.025Z,97454.00
2022-12-15T20:39:35.034Z,97459.00
2022-12-15T20:42:06.492Z,97462.00
2022-12-15T20:44:37.522Z,97465.00
2022-12-15T20:47:20.473Z,97465.00
2022-12-15T20:49:53.181Z,97469.00
2022-12-15T20:52:27.239Z,97464.00
2022-12-15T20:54:58.109Z,97465.00
2022-12-15T20:57:29.053Z,97462.00
2022-12-15T21:00:00.002Z,97469.00
2022-12-15T21:02:31.086Z,97472.00
2022-12-15T21:05:03.587Z,97469.00
2022-12-15T21:07:34.541Z,97467.00
2022-12-15T21:10:05.923Z,97464.00
2022-12-15T21:12:36.922Z,97474.00
2022-12-15T21:15:23.012Z,97457.00
2022-12-15T21:18:19.763Z,97462.00
2022-12-15T21:20:54.871Z,97447.00
2022-12-15T21:23:30.156Z,97447.00
2022-12-15T21:26:02.430Z,97449.00
2022-12-15T21:28:33.737Z,97450.00
2022-12-15T21:31:05.847Z,97442.00
2022-12-15T21:33:36.855Z,97434.00
2022-12-15T21:36:15.497Z,97427.00
2022-12-15T21:38:52.224Z,97437.00
2022-12-15T21:41:23.821Z,97431.00
2022-12-15T21:43:55.024Z,97427.00
2022-12-15T21:46:30.747Z,97430.00
2022-12-15T21:49:18.526Z,97431.00
2022-12-15T21:51:58.008Z,97426.00
2022-12-15T21:54:35.121Z,97428.00
2022-12-15T21:57:13.464Z,97426.00
2022-12-15T21:59:44.349Z,97434.00
2022-12-15T22:02:26.803Z,97438.00
2022-12-15T22:04:58.089Z,97437.00
2022-12-15T22:07:29.042Z,97436.00
2022-12-15T22:09:59.979Z,97437.00
2022-12-15T22:12:30.943Z,97447.00
2022-12-15T22:15:03.847Z,97454.00
2022-12-15T22:17:34.764Z,97457.00
2022-12-15T22:20:24.588Z,97449.00
2022-12-15T22:22:55.533Z,97448.00
2022-12-15T22:25:26.453Z,97462.00
2022-12-15T22:27:57.417Z,97462.00
2022-12-15T22:30:29.952Z,97468.00
2022-12-15T22:33:01.592Z,97472.00
2022-12-15T22:35:32.510Z,97476.00
2022-12-15T22:38:06.512Z,97480.00
2022-12-15T22:40:37.453Z,97488.00
2022-12-15T22:43:19.771Z,97495.00
2022-12-15T22:45:53.315Z,97500.00
2022-12-15T22:48:31.754Z,97501.00
2022-12-15T22:51:05.483Z,97495.00
2022-12-15T22:53:36.408Z,97496.00
2022-12-15T22:56:26.756Z,97495.00
2022-12-15T22:59:07.899Z,97492.00
2022-12-15T23:01:39.303Z,97496.00
2022-12-15T23:04:10.520Z,97501.00
2022-12-15T23:06:41.792Z,97499.00
2022-12-15T23:09:12.741Z,97497.00
2022-12-15T23:11:44.101Z,97493.00
2022-12-15T23:14:19.303Z,97500.00
2022-12-15T23:16:50.418Z,97498.00
2022-12-15T23:19:24.234Z,97490.00
2022-12-15T23:21:55.243Z,97493.00
2022-12-15T23:24:26.998Z,97496.00
2022-12-15T23:26:57.980Z,97502.00
2022-12-15T23:29:29.144Z,97481.00
2022-12-15T23:32:00.087Z,97485.00
2022-12-15T23:34:31.506Z,97493.00
2022-12-15T23:37:04.911Z,97490.00
2022-12-15T23:39:35.848Z,97488.00
2022-12-15T23:42:06.766Z,97492.00
2022-12-15T23:44:37.838Z,97495.00
2022-12-15T23:47:08.908Z,97494.00
2022-12-15T23:49:39.997Z,97495.00
2022-12-15T23:52:10.903Z,97502.00
2022-12-15T23:54:41.786Z,97510.00
2022-12-15T23:57:12.850Z,97496.00
2022-12-15T23:59:45.552Z,97501.00
